createdAt,value
2023-05-10T03:04:33.112Z,15.67
2023-05-10T04:59:49.699Z,15.90
2023-05-10T05:28:45.148Z,16.25
2023-05-10T05:37:25.565Z,16.30
2023-05-10T05:41:34.235Z,16.33
2023-05-10T05:46:19.086Z,16.73
2023-05-10T05:54:28.529Z,15.38
2023-05-10T05:57:07.137Z,15.25
2023-05-10T05:59:47.991Z,16.20
2023-05-10T06:05:00.568Z,14.05
2023-05-10T06:10:18.089Z,13.50
2023-05-10T06:12:44.811Z,13.32
2023-05-10T06:15:16.012Z,14.20
2023-05-10T06:17:46.004Z,14.05
2023-05-10T06:20:40.184Z,15.15
2023-05-10T06:23:04.917Z,14.55
2023-05-10T06:25:31.670Z,14.80
2023-05-10T06:27:59.055Z,14.17
2023-05-10T06:30:30.116Z,14.50
2023-05-10T06:32:57.611Z,13.07
2023-05-10T06:35:24.698Z,13.00
2023-05-10T06:37:52.298Z,12.10
2023-05-10T06:40:20.519Z,12.30
2023-05-10T06:42:47.765Z,12.48
2023-05-10T06:45:15.863Z,11.77
2023-05-10T06:47:42.873Z,11.20
2023-05-10T06:50:10.711Z,10.40
2023-05-10T06:52:38.171Z,9.23
2023-05-10T06:55:05.407Z,9.05
2023-05-10T06:57:32.791Z,8.93
2023-05-10T07:00:00.029Z,8.35
2023-05-10T07:02:26.690Z,8.45
2023-05-10T07:04:53.442Z,7.77
2023-05-10T07:07:20.225Z,6.93
2023-05-10T07:12:23.292Z,7.03
2023-05-10T07:15:18.648Z,6.53
2023-05-10T07:17:46.668Z,6.13
2023-05-10T07:20:15.031Z,6.20
2023-05-10T07:22:41.715Z,7.20
2023-05-10T07:25:08.632Z,6.22
2023-05-10T07:27:35.526Z,6.40
2023-05-10T07:30:03.522Z,6.07
2023-05-10T07:32:30.148Z,5.60
2023-05-10T07:34:56.785Z,5.63
2023-05-10T07:37:23.603Z,5.95
2023-05-10T07:42:35.914Z,5.43
2023-05-10T07:45:05.153Z,6.53
2023-05-10T07:47:31.920Z,6.50
2023-05-10T07:53:01.929Z,6.07
2023-05-10T07:55:28.615Z,6.37
2023-05-10T07:57:55.226Z,6.00
2023-05-10T08:00:49.057Z,5.97
2023-05-10T08:03:18.695Z,5.85
2023-05-10T08:05:45.571Z,6.15
2023-05-10T08:08:18.481Z,5.27
2023-05-10T08:10:45.369Z,5.35
2023-05-10T08:13:15.380Z,5.07
2023-05-10T08:15:42.049Z,5.72
2023-05-10T08:18:08.787Z,5.72
2023-05-10T08:20:35.463Z,6.17
2023-05-10T08:27:12.438Z,6.18
2023-05-10T08:29:49.725Z,5.78
2023-05-10T08:32:42.375Z,6.60
2023-05-10T08:35:07.024Z,6.57
2023-05-10T08:37:34.119Z,6.45
2023-05-10T08:40:00.882Z,6.65
2023-05-10T08:42:31.303Z,5.93
2023-05-10T08:44:59.155Z,6.10
2023-05-10T08:47:26.528Z,7.17
2023-05-10T08:49:53.581Z,5.38
2023-05-10T08:52:20.989Z,7.13
2023-05-10T08:54:48.050Z,6.80
2023-05-10T08:57:14.719Z,6.88
2023-05-10T08:59:41.498Z,6.17
2023-05-10T09:02:13.393Z,6.97
2023-05-10T09:04:40.227Z,5.78
2023-05-10T09:07:08.174Z,5.85
2023-05-10T09:09:36.013Z,6.30
2023-05-10T09:12:02.657Z,5.70
2023-05-10T09:14:30.017Z,5.63
2023-05-10T09:16:57.360Z,8.85
2023-05-10T09:19:23.922Z,6.22
2023-05-10T09:21:50.778Z,8.43
2023-05-10T09:24:17.213Z,9.13
2023-05-10T09:26:49.320Z,3.67
2023-05-10T09:29:17.473Z,3.38
2023-05-10T09:31:48.037Z,2.35
2023-05-10T09:34:20.315Z,2.47
2023-05-10T09:36:53.723Z,2.30
2023-05-10T09:39:20.482Z,2.38
2023-05-10T09:41:47.863Z,2.17
2023-05-10T09:44:19.684Z,2.42
2023-05-10T09:46:50.847Z,1.85
2023-05-10T09:49:17.362Z,2.00
2023-05-10T09:51:43.851Z,2.00
2023-05-10T09:54:12.157Z,2.90
2023-05-10T09:56:41.384Z,2.67
2023-05-10T09:59:11.098Z,2.80
2023-05-10T10:01:38.489Z,3.27
2023-05-10T10:04:06.905Z,3.58
2023-05-10T10:06:38.608Z,2.92
2023-05-10T10:09:06.006Z,3.10
2023-05-10T10:11:33.960Z,2.95
2023-05-10T10:14:00.840Z,3.10
2023-05-10T10:16:29.924Z,2.85
2023-05-10T10:18:57.119Z,2.97
2023-05-10T10:21:25.724Z,3.40
2023-05-10T10:23:53.706Z,3.17
2023-05-10T10:26:22.091Z,3.03
2023-05-10T10:28:57.985Z,3.20
2023-05-10T10:31:36.636Z,3.55
2023-05-10T10:34:11.087Z,3.15
2023-05-10T10:36:48.054Z,3.40
2023-05-10T10:39:15.769Z,3.17
2023-05-10T10:41:53.024Z,3.50
2023-05-10T10:44:24.408Z,3.10
2023-05-10T10:47:26.261Z,3.35
2023-05-10T10:49:58.747Z,3.50
2023-05-10T10:52:30.133Z,3.27
2023-05-10T10:55:06.365Z,3.63
2023-05-10T10:57:34.862Z,3.15
2023-05-10T11:00:22.768Z,3.55
2023-05-10T11:02:52.875Z,3.13
2023-05-10T11:05:34.455Z,3.47
2023-05-10T11:08:07.714Z,2.83
2023-05-10T11:10:34.291Z,3.33
2023-05-10T11:13:03.348Z,2.75
2023-05-10T11:15:31.955Z,3.42
2023-05-10T11:17:58.569Z,3.20
2023-05-10T11:20:34.033Z,2.67
2023-05-10T11:23:13.944Z,3.13
2023-05-10T11:25:47.235Z,3.20
2023-05-10T11:28:14.076Z,3.40
2023-05-10T11:30:42.162Z,3.13
2023-05-10T11:33:09.331Z,2.65
2023-05-10T11:35:43.199Z,2.67
2023-05-10T11:38:12.130Z,2.90
2023-05-10T11:40:39.875Z,2.67
2023-05-10T11:43:06.721Z,2.63
2023-05-10T11:45:34.446Z,2.30
2023-05-10T11:48:02.081Z,2.10
2023-05-10T11:50:29.119Z,2.63
2023-05-10T11:52:57.616Z,2.20
2023-05-10T11:55:25.235Z,2.00
2023-05-10T11:57:54.271Z,2.22
2023-05-10T12:00:21.138Z,1.80
2023-05-10T12:02:49.054Z,1.88
2023-05-10T12:05:16.013Z,1.90
2023-05-10T12:07:42.522Z,1.70
2023-05-10T12:10:16.320Z,1.98
2023-05-10T12:12:45.871Z,1.67
2023-05-10T12:15:18.685Z,1.33
2023-05-10T12:17:46.202Z,1.58
2023-05-10T12:20:20.810Z,1.40
2023-05-10T12:22:55.413Z,1.70
2023-05-10T12:25:23.641Z,1.67
2023-05-10T12:27:52.784Z,1.95
2023-05-10T12:30:29.774Z,2.05
2023-05-10T12:33:02.606Z,1.80
2023-05-10T12:35:32.332Z,2.05
2023-05-10T12:37:59.359Z,1.75
2023-05-10T12:40:25.978Z,1.50
2023-05-10T12:42:53.193Z,1.35
2023-05-10T12:45:19.791Z,1.13
2023-05-10T12:47:46.373Z,1.33
2023-05-10T12:50:12.931Z,1.52
2023-05-10T12:52:39.440Z,1.40
2023-05-10T12:55:06.157Z,1.30
2023-05-10T12:57:32.792Z,1.37
2023-05-10T12:59:59.287Z,1.40
2023-05-10T13:02:26.037Z,1.00
2023-05-10T13:04:53.056Z,1.10
2023-05-10T13:07:19.665Z,1.27
2023-05-10T13:09:46.372Z,1.20
2023-05-10T13:12:12.968Z,1.27
2023-05-10T13:14:41.439Z,1.40
2023-05-10T13:17:08.270Z,1.00
2023-05-10T13:19:34.923Z,1.35
2023-05-10T13:22:02.579Z,0.83
2023-05-10T13:24:29.209Z,1.92
2023-05-10T13:26:57.067Z,1.90
2023-05-10T13:29:23.726Z,2.88
2023-05-10T13:31:50.586Z,3.55
2023-05-10T13:34:17.438Z,3.43
2023-05-10T13:36:44.093Z,3.53
2023-05-10T13:39:10.631Z,3.03
2023-05-10T13:41:37.812Z,3.47
2023-05-10T13:44:04.639Z,3.20
2023-05-10T13:46:31.858Z,2.43
2023-05-10T13:49:07.313Z,3.35
2023-05-10T13:51:35.303Z,3.70
2023-05-10T13:54:02.182Z,3.72
2023-05-10T13:56:28.852Z,3.20
2023-05-10T13:58:55.464Z,3.10
2023-05-10T14:01:22.009Z,3.40
2023-05-10T14:03:49.152Z,3.08
2023-05-10T14:06:15.959Z,3.10
2023-05-10T14:08:43.047Z,3.08
2023-05-10T14:11:09.840Z,3.27
2023-05-10T14:13:36.489Z,3.90
2023-05-10T14:16:04.147Z,3.25
2023-05-10T14:18:31.033Z,3.75
2023-05-10T14:20:58.827Z,3.08
2023-05-10T14:23:25.363Z,3.47
2023-05-10T14:25:53.117Z,3.55
2023-05-10T14:28:21.500Z,3.40
2023-05-10T14:30:48.307Z,3.22
2023-05-10T14:33:15.405Z,3.30
2023-05-10T14:35:42.124Z,3.73
2023-05-10T14:38:08.814Z,3.05
2023-05-10T14:40:35.624Z,3.22
2023-05-10T14:43:02.186Z,3.30
2023-05-10T14:45:29.782Z,3.90
2023-05-10T14:47:57.465Z,3.57
2023-05-10T14:50:35.985Z,3.97
2023-05-10T14:53:03.879Z,4.10
2023-05-10T14:55:31.031Z,4.05
2023-05-10T14:57:58.290Z,4.18
2023-05-10T15:00:24.970Z,3.97
2023-05-10T15:02:51.900Z,4.10
2023-05-10T15:05:19.214Z,3.65
2023-05-10T15:07:46.448Z,3.47
2023-05-10T15:10:13.218Z,4.13
2023-05-10T15:12:39.782Z,3.50
2023-05-10T15:15:07.394Z,3.78
2023-05-10T15:17:34.473Z,4.40
2023-05-10T15:20:03.959Z,3.70
2023-05-10T15:22:34.195Z,4.13
2023-05-10T15:25:01.136Z,4.23
2023-05-10T15:27:27.719Z,4.30
2023-05-10T15:29:54.333Z,3.80
2023-05-10T15:32:22.789Z,3.90
2023-05-10T15:34:49.393Z,4.00
2023-05-10T15:37:15.981Z,3.40
2023-05-10T15:39:42.565Z,4.03
2023-05-10T15:42:09.184Z,3.92
2023-05-10T15:44:36.103Z,3.63
2023-05-10T15:47:03.793Z,4.20
2023-05-10T15:49:30.589Z,3.77
2023-05-10T15:51:57.119Z,2.85
2023-05-10T15:54:23.624Z,2.90
2023-05-10T15:56:50.175Z,3.20
2023-05-10T15:59:16.713Z,3.28
2023-05-10T16:01:44.373Z,3.40
2023-05-10T16:04:10.982Z,2.90
2023-05-10T16:06:37.982Z,3.70
2023-05-10T16:09:04.739Z,3.42
2023-05-10T16:11:31.413Z,3.28
2023-05-10T16:13:58.107Z,3.37
2023-05-10T16:16:24.752Z,3.28
2023-05-10T16:18:52.440Z,3.22
2023-05-10T16:21:19.214Z,3.67
2023-05-10T16:23:46.516Z,3.05
2023-05-10T16:26:13.195Z,3.30
2023-05-10T16:28:41.909Z,3.20
2023-05-10T16:31:08.417Z,3.80
2023-05-10T16:33:35.299Z,3.42
2023-05-10T16:36:01.792Z,3.30
2023-05-10T16:38:28.397Z,3.70
2023-05-10T16:40:56.429Z,3.50
2023-05-10T16:43:24.701Z,3.50
2023-05-10T16:45:52.675Z,3.40
2023-05-10T16:48:19.191Z,3.42
2023-05-10T16:50:45.980Z,3.47
2023-05-10T16:53:12.775Z,2.72
2023-05-10T16:55:39.368Z,2.50
2023-05-10T16:58:05.939Z,2.60
2023-05-10T17:00:32.632Z,2.22
2023-05-10T17:02:59.366Z,2.73
2023-05-10T17:05:26.440Z,2.58
2023-05-10T17:07:53.089Z,2.20
2023-05-10T17:10:19.802Z,1.92
2023-05-10T17:12:46.436Z,2.13
2023-05-10T17:15:13.271Z,2.03
2023-05-10T17:17:39.889Z,1.98
2023-05-10T17:20:07.369Z,2.25
2023-05-10T17:22:34.082Z,2.00
2023-05-10T17:39:05.131Z,1.98
2023-05-10T17:41:36.813Z,2.20
2023-05-10T17:44:29.170Z,2.33
2023-05-10T17:50:32.806Z,2.92
2023-05-10T17:53:04.531Z,2.70
2023-05-10T17:55:35.495Z,2.75
2023-05-10T17:58:03.276Z,2.90
2023-05-10T18:00:30.111Z,3.17
2023-05-10T18:02:56.879Z,3.25
2023-05-10T18:05:24.148Z,3.20
2023-05-10T18:07:53.609Z,3.13
2023-05-10T18:10:21.671Z,2.90
2023-05-10T18:13:08.864Z,2.88
2023-05-10T18:15:35.841Z,3.47
2023-05-10T18:18:05.283Z,3.60
2023-05-10T18:20:32.013Z,3.15
2023-05-10T18:22:58.814Z,3.73
2023-05-10T18:25:59.744Z,3.03
2023-05-10T18:28:29.674Z,3.05
2023-05-10T18:31:19.621Z,3.85
2023-05-10T18:36:50.296Z,3.40
2023-05-10T18:39:19.496Z,3.35
2023-05-10T18:41:46.525Z,3.92
2023-05-10T18:44:13.285Z,3.55
2023-05-10T18:49:23.049Z,3.90
2023-05-10T18:51:54.689Z,3.75
2023-05-10T18:54:23.480Z,3.78
2023-05-10T18:56:53.341Z,4.00
2023-05-10T18:59:20.186Z,3.72
2023-05-10T19:01:47.938Z,3.93
2023-05-10T19:04:16.393Z,3.75
2023-05-10T19:06:43.261Z,4.25
2023-05-10T19:11:54.249Z,3.92
2023-05-10T19:14:21.441Z,4.37
2023-05-10T19:16:48.440Z,4.50
2023-05-10T19:19:15.446Z,4.95
2023-05-10T19:21:42.475Z,6.53
2023-05-10T19:43:49.191Z,9.93
2023-05-10T19:46:20.520Z,8.10
2023-05-10T19:52:15.208Z,5.93
2023-05-10T19:58:23.677Z,5.33
2023-05-10T20:04:50.528Z,5.05
2023-05-10T20:07:47.961Z,5.10
2023-05-10T20:13:51.734Z,5.80
2023-05-10T20:16:25.083Z,5.75
2023-05-10T20:19:19.768Z,5.65
2023-05-10T20:49:42.417Z,4.47
2023-05-10T21:14:06.769Z,4.55
2023-05-10T21:16:37.811Z,4.73
2023-05-10T21:22:58.390Z,5.40
2023-05-10T21:25:51.676Z,5.63
2023-05-10T21:28:21.766Z,4.90
2023-05-10T21:31:15.182Z,4.27
2023-05-10T21:36:27.280Z,5.32
2023-05-10T21:38:58.980Z,5.15
2023-05-10T21:41:28.665Z,5.05
2023-05-10T21:43:58.249Z,5.13
2023-05-10T21:46:50.152Z,4.80
2023-05-10T21:49:38.992Z,4.45
2023-05-10T21:57:55.948Z,4.30
2023-05-10T22:03:23.477Z,4.57
2023-05-10T22:04:07.458Z,4.30
2023-05-10T22:09:25.457Z,4.63
2023-05-10T22:11:54.674Z,4.63
2023-05-10T22:19:49.125Z,4.43
2023-05-10T22:22:18.424Z,4.78
2023-05-10T22:24:47.387Z,4.30
2023-05-10T22:30:00.574Z,4.80
2023-05-10T22:32:27.641Z,4.80
2023-05-10T22:35:26.922Z,4.90
2023-05-10T22:37:43.940Z,4.80
2023-05-10T22:40:11.693Z,4.85
2023-05-10T22:42:40.568Z,5.07
2023-05-10T22:45:08.145Z,4.80
2023-05-10T22:47:35.165Z,4.50
2023-05-10T22:50:05.804Z,4.80
2023-05-10T22:52:32.526Z,4.63
2023-05-10T22:54:59.382Z,5.22
2023-05-10T22:57:26.672Z,4.47
2023-05-10T22:59:55.624Z,5.43
2023-05-10T23:02:22.314Z,4.57
2023-05-10T23:04:49.333Z,5.72
2023-05-10T23:07:16.121Z,4.70
2023-05-10T23:09:42.859Z,4.70
2023-05-10T23:12:09.809Z,6.10
2023-05-10T23:14:36.468Z,5.13
2023-05-10T23:17:03.240Z,5.90
2023-05-10T23:19:33.405Z,6.07
2023-05-10T23:22:02.490Z,5.95
2023-05-10T23:24:29.214Z,5.47
2023-05-10T23:26:58.138Z,5.53
2023-05-10T23:32:09.109Z,5.30
2023-05-10T23:34:38.860Z,6.07
2023-05-10T23:37:10.872Z,6.20
2023-05-10T23:39:37.728Z,5.87
2023-05-10T23:42:04.609Z,6.85
2023-05-10T23:44:31.740Z,6.60
2023-05-10T23:46:58.666Z,7.30
2023-05-10T23:49:28.527Z,6.43
2023-05-10T23:51:55.375Z,6.17
2023-05-10T23:54:22.238Z,6.75
2023-05-10T23:57:15.138Z,6.75
